Darstellungsparameter: Aktuell verwendete Einstellungen:
Skalierung der Graphiken ... ?
xyx+y,   Skalierungsfaktor:      Skalierung: Modus: x, Faktor: 1
Darstellungszeitraum ... ?
Vom - - bis: - -   Zeitraum: 15.02.2014 - 15.02.2014
Min/Max/Avg-Anzeige ... ?
Zeige MMA aktuell
Zeige MMA Monat
Zeige MMA alles
Zeige --A aktuell
Zeige --A Monat
Zeige --A alles
Keine MMA-Anzeige
MMA:
Keine MMA-Graphiken
MMA-Basis: 15.02.2014 - 15.02.2014
Quicknavigation für Darstellung... ?
Tage:      1T, 2T, 3T, 5T -1T -2T -3T -5T +1T +2T +3T +5T
Wochen: 1W, 2W, 3W -1W -2W -3W +1W +2W +3W
Monate: 1M, 3M, 6M -1M -3M -6M +1M +3M +6M
Jahre:    1J, 3J, 5J, 10J -1J -3J -5J -10J +1J +3J +5J +10J
Nutze für die Darstellung ... ?
Originaldaten oder Mittelwerte auf ...
Stundenbasis Tagesbasis Wochenbasis
Monatsbasis Jahresbasis      Datenbasis: Original-Daten
Darstellen als:
Statistik (Auto) Statistik J:M      Darstellung:
Zur Graphik,    zurück zur Übersicht aller Sensoren.
 
Tabellarische Datenbersicht: ?
 
Sensor: Nr:Datum:Temp:Feuchte:Taupunkt:
Aussen-T/F 1 15-02-2014 00:00:00 5.8 C 94 % 4.91 C
2 15-02-2014 00:05:00 5.8 C 94 % 4.91 C
3 15-02-2014 00:10:00 5.9 C 94 % 5.01 C
4 15-02-2014 00:15:00 5.9 C 94 % 5.01 C
5 15-02-2014 00:20:00 5.8 C 94 % 4.91 C
6 15-02-2014 00:25:00 5.8 C 94 % 4.91 C
7 15-02-2014 00:30:00 5.7 C 94 % 4.81 C
8 15-02-2014 00:35:00 5.7 C 94 % 4.81 C
9 15-02-2014 00:40:00 5.7 C 94 % 4.81 C
10 15-02-2014 00:45:00 5.7 C 94 % 4.81 C
11 15-02-2014 00:50:00 5.7 C 94 % 4.81 C
12 15-02-2014 00:55:00 5.7 C 94 % 4.81 C
13 15-02-2014 01:00:00 5.6 C 94 % 4.71 C
14 15-02-2014 01:05:00 5.7 C 95 % 4.96 C
15 15-02-2014 01:10:00 5.9 C 95 % 5.16 C
16 15-02-2014 01:15:00 6.2 C 94 % 5.31 C
17 15-02-2014 01:20:00 6.4 C 93 % 5.35 C
18 15-02-2014 01:25:00 6.6 C 93 % 5.55 C
19 15-02-2014 01:30:00 6.7 C 92 % 5.49 C
20 15-02-2014 01:35:00 6.8 C 92 % 5.59 C
21 15-02-2014 01:40:00 6.8 C 92 % 5.59 C
22 15-02-2014 01:45:00 6.8 C 93 % 5.75 C
23 15-02-2014 01:50:00 6.9 C 92 % 5.69 C
24 15-02-2014 01:55:00 6.9 C 92 % 5.69 C
25 15-02-2014 02:00:00 7.2 C 92 % 5.99 C
Sensor: Nr:Datum:Temp:Feuchte:Taupunkt:
Aussen-T/F 26 15-02-2014 02:05:00 7.4 C 91 % 6.03 C
27 15-02-2014 02:10:00 7.5 C 91 % 6.13 C
28 15-02-2014 02:15:00 7.5 C 91 % 6.13 C
29 15-02-2014 02:20:00 7.4 C 91 % 6.03 C
30 15-02-2014 02:25:00 7.5 C 92 % 6.29 C
31 15-02-2014 02:30:00 7.6 C 92 % 6.39 C
32 15-02-2014 02:35:00 7.8 C 91 % 6.43 C
33 15-02-2014 02:40:00 8.2 C 89 % 6.5 C
34 15-02-2014 02:45:00 8.3 C 89 % 6.6 C
35 15-02-2014 02:50:00 8.3 C 89 % 6.6 C
36 15-02-2014 02:55:00 8.3 C 90 % 6.76 C
37 15-02-2014 03:00:00 8.3 C 89 % 6.6 C
38 15-02-2014 03:05:00 8.4 C 88 % 6.53 C
39 15-02-2014 03:10:00 8.4 C 88 % 6.53 C
40 15-02-2014 03:15:00 8.2 C 87 % 6.17 C
41 15-02-2014 03:20:00 8 C 88 % 6.14 C
42 15-02-2014 03:25:00 7.8 C 89 % 6.1 C
43 15-02-2014 03:30:00 7.7 C 89 % 6 C
44 15-02-2014 03:35:00 7.4 C 90 % 5.87 C
45 15-02-2014 03:40:00 7.4 C 90 % 5.87 C
46 15-02-2014 03:45:00 7.3 C 90 % 5.77 C
47 15-02-2014 03:50:00 7.3 C 90 % 5.77 C
48 15-02-2014 03:55:00 7.2 C 91 % 5.83 C
49 15-02-2014 04:00:00 7.3 C 91 % 5.93 C
50 15-02-2014 04:05:00 7.4 C 91 % 6.03 C
Sensor: Nr:Datum:Temp:Feuchte:Taupunkt:
Aussen-T/F 51 15-02-2014 04:10:00 7.5 C 90 % 5.97 C
52 15-02-2014 04:15:00 7.4 C 90 % 5.87 C
53 15-02-2014 04:20:00 7.3 C 91 % 5.93 C
54 15-02-2014 04:25:00 7.3 C 91 % 5.93 C
55 15-02-2014 04:30:00 7.4 C 91 % 6.03 C
56 15-02-2014 04:35:00 7.4 C 91 % 6.03 C
57 15-02-2014 04:40:00 7.4 C 92 % 6.19 C
58 15-02-2014 04:45:00 7.8 C 91 % 6.43 C
59 15-02-2014 04:50:00 7.9 C 90 % 6.36 C
60 15-02-2014 04:55:00 7.9 C 90 % 6.36 C
61 15-02-2014 05:00:00 7.9 C 90 % 6.36 C
62 15-02-2014 05:05:00 8 C 90 % 6.46 C
63 15-02-2014 05:10:00 8.1 C 91 % 6.72 C
64 15-02-2014 05:15:00 8.1 C 91 % 6.72 C
65 15-02-2014 05:20:00 8.1 C 91 % 6.72 C
66 15-02-2014 05:25:00 8.2 C 91 % 6.82 C
67 15-02-2014 05:30:00 8.4 C 90 % 6.86 C
68 15-02-2014 05:35:00 8.8 C 89 % 7.09 C
69 15-02-2014 05:40:00 9 C 88 % 7.12 C
70 15-02-2014 05:45:00 8.9 C 89 % 7.19 C
71 15-02-2014 05:50:00 8.8 C 90 % 7.25 C
72 15-02-2014 05:55:00 8.7 C 91 % 7.32 C
73 15-02-2014 06:00:00 8.8 C 90 % 7.25 C
74 15-02-2014 06:05:00 9.1 C 89 % 7.39 C
75 15-02-2014 06:10:00 8.9 C 89 % 7.19 C
Sensor: Nr:Datum:Temp:Feuchte:Taupunkt:
Aussen-T/F 76 15-02-2014 06:15:00 8.8 C 90 % 7.25 C
77 15-02-2014 06:20:00 8.9 C 90 % 7.35 C
78 15-02-2014 06:25:00 9.4 C 88 % 7.52 C
79 15-02-2014 06:30:00 9.9 C 86 % 7.67 C
80 15-02-2014 06:35:00 10 C 86 % 7.77 C
81 15-02-2014 06:40:00 9.9 C 85 % 7.5 C
82 15-02-2014 06:45:00 10.4 C 82 % 7.46 C
83 15-02-2014 06:50:00 10.5 C 81 % 7.38 C
84 15-02-2014 06:55:00 10.1 C 83 % 7.35 C
85 15-02-2014 07:00:00 10.3 C 82 % 7.37 C
86 15-02-2014 07:05:00 10.3 C 82 % 7.37 C
87 15-02-2014 07:10:00 10.5 C 81 % 7.38 C
88 15-02-2014 07:15:00 10.5 C 83 % 7.74 C
89 15-02-2014 07:20:00 10.4 C 83 % 7.64 C
90 15-02-2014 07:25:00 10.4 C 81 % 7.28 C
91 15-02-2014 07:30:00 10.8 C 81 % 7.67 C
92 15-02-2014 07:35:00 11.1 C 78 % 7.41 C
93 15-02-2014 07:40:00 11.5 C 74 % 7.03 C
94 15-02-2014 07:45:00 11.6 C 74 % 7.13 C
95 15-02-2014 07:50:00 11.6 C 72 % 6.73 C
96 15-02-2014 07:55:00 11.6 C 72 % 6.73 C
97 15-02-2014 08:00:00 11.3 C 73 % 6.64 C
98 15-02-2014 08:05:00 11.1 C 74 % 6.65 C
99 15-02-2014 08:10:00 11.1 C 75 % 6.84 C
100 15-02-2014 08:15:00 11.3 C 74 % 6.84 C
Sensor: Nr:Datum:Temp:Feuchte:Taupunkt:
Aussen-T/F 101 15-02-2014 08:20:00 11.4 C 73 % 6.74 C
102 15-02-2014 08:25:00 11.4 C 73 % 6.74 C
103 15-02-2014 08:30:00 11.4 C 73 % 6.74 C
104 15-02-2014 08:35:00 11.4 C 73 % 6.74 C
105 15-02-2014 08:40:00 11.3 C 73 % 6.64 C
106 15-02-2014 08:45:00 11.4 C 72 % 6.54 C
107 15-02-2014 08:50:00 11.4 C 72 % 6.54 C
108 15-02-2014 08:55:00 11.6 C 71 % 6.53 C
109 15-02-2014 09:00:00 11.6 C 71 % 6.53 C
110 15-02-2014 09:05:00 11.7 C 71 % 6.62 C
111 15-02-2014 09:10:00 11.7 C 72 % 6.83 C
112 15-02-2014 09:15:00 11.7 C 71 % 6.62 C
113 15-02-2014 09:20:00 11.8 C 70 % 6.51 C
114 15-02-2014 09:25:00 11.8 C 70 % 6.51 C
115 15-02-2014 09:30:00 11.8 C 70 % 6.51 C
116 15-02-2014 09:35:00 11.8 C 69 % 6.31 C
117 15-02-2014 09:40:00 11.9 C 69 % 6.4 C
118 15-02-2014 09:45:00 11.9 C 70 % 6.61 C
119 15-02-2014 09:50:00 11.9 C 68 % 6.19 C
120 15-02-2014 09:55:00 11.9 C 68 % 6.19 C
121 15-02-2014 10:00:00 12 C 68 % 6.29 C
122 15-02-2014 10:05:00 12 C 69 % 6.5 C
123 15-02-2014 10:10:00 12 C 69 % 6.5 C
124 15-02-2014 10:15:00 12 C 69 % 6.5 C
125 15-02-2014 10:20:00 12 C 69 % 6.5 C
Sensor: Nr:Datum:Temp:Feuchte:Taupunkt:
Aussen-T/F 126 15-02-2014 10:25:00 12 C 69 % 6.5 C
127 15-02-2014 10:30:00 12 C 69 % 6.5 C
128 15-02-2014 10:50:00 11.9 C 68 % 6.19 C
129 15-02-2014 10:55:00 12.1 C 67 % 6.17 C
130 15-02-2014 11:00:00 12.1 C 66 % 5.95 C
131 15-02-2014 11:15:00 12.2 C 67 % 6.26 C
132 15-02-2014 11:20:00 12.2 C 67 % 6.26 C
133 15-02-2014 11:25:00 12.2 C 67 % 6.26 C
134 15-02-2014 11:30:00 12.2 C 66 % 6.04 C
135 15-02-2014 11:35:00 12.3 C 66 % 6.14 C
136 15-02-2014 11:40:00 12.2 C 66 % 6.04 C
137 15-02-2014 11:45:00 12.3 C 66 % 6.14 C
138 15-02-2014 11:50:00 12.3 C 67 % 6.36 C
139 15-02-2014 11:55:00 12.3 C 66 % 6.14 C
140 15-02-2014 12:00:00 12.2 C 65 % 5.82 C
141 15-02-2014 12:05:00 12.1 C 65 % 5.73 C
142 15-02-2014 12:10:00 12.1 C 66 % 5.95 C
143 15-02-2014 12:15:00 12.2 C 65 % 5.82 C
144 15-02-2014 12:20:00 12.1 C 66 % 5.95 C
145 15-02-2014 12:25:00 12.1 C 65 % 5.73 C
146 15-02-2014 12:30:00 12.2 C 66 % 6.04 C
147 15-02-2014 12:35:00 12.2 C 65 % 5.82 C
148 15-02-2014 12:40:00 12.2 C 65 % 5.82 C
149 15-02-2014 12:45:00 12.2 C 65 % 5.82 C
150 15-02-2014 12:50:00 12.2 C 65 % 5.82 C
Sensor: Nr:Datum:Temp:Feuchte:Taupunkt:
Aussen-T/F 151 15-02-2014 12:55:00 12.2 C 65 % 5.82 C
152 15-02-2014 13:00:00 12.2 C 65 % 5.82 C
153 15-02-2014 13:05:00 12.2 C 65 % 5.82 C
154 15-02-2014 13:10:00 12.2 C 66 % 6.04 C
155 15-02-2014 13:15:00 12.1 C 66 % 5.95 C
156 15-02-2014 13:20:00 12.1 C 67 % 6.17 C
157 15-02-2014 13:25:00 12.1 C 67 % 6.17 C
158 15-02-2014 13:30:00 12.2 C 67 % 6.26 C
159 15-02-2014 13:35:00 12.1 C 68 % 6.38 C
160 15-02-2014 13:40:00 12.1 C 68 % 6.38 C
161 15-02-2014 13:45:00 12.1 C 68 % 6.38 C
162 15-02-2014 13:50:00 12.1 C 68 % 6.38 C
163 15-02-2014 13:55:00 12.1 C 68 % 6.38 C
164 15-02-2014 14:00:00 12.2 C 68 % 6.48 C
165 15-02-2014 14:05:00 12.3 C 68 % 6.57 C
166 15-02-2014 14:10:00 12.3 C 68 % 6.57 C
167 15-02-2014 14:15:00 12.3 C 69 % 6.78 C
168 15-02-2014 14:20:00 12.3 C 69 % 6.78 C
169 15-02-2014 14:25:00 12.3 C 69 % 6.78 C
170 15-02-2014 14:30:00 12.4 C 68 % 6.67 C
171 15-02-2014 14:35:00 12.3 C 69 % 6.78 C
172 15-02-2014 14:40:00 12.4 C 69 % 6.88 C
173 15-02-2014 14:45:00 12.4 C 69 % 6.88 C
174 15-02-2014 14:50:00 12.3 C 68 % 6.57 C
175 15-02-2014 14:55:00 12.2 C 69 % 6.69 C
Sensor: Nr:Datum:Temp:Feuchte:Taupunkt:
Aussen-T/F 176 15-02-2014 15:00:00 12.2 C 69 % 6.69 C
177 15-02-2014 15:05:00 12.2 C 69 % 6.69 C
178 15-02-2014 15:10:00 12.1 C 69 % 6.59 C
179 15-02-2014 15:15:00 12.1 C 69 % 6.59 C
180 15-02-2014 15:20:00 12 C 69 % 6.5 C
181 15-02-2014 15:25:00 11.9 C 68 % 6.19 C
182 15-02-2014 15:30:00 11.9 C 67 % 5.98 C
183 15-02-2014 15:35:00 11.9 C 68 % 6.19 C
184 15-02-2014 15:40:00 11.8 C 67 % 5.88 C
185 15-02-2014 15:45:00 11.8 C 68 % 6.09 C
186 15-02-2014 15:50:00 11.7 C 68 % 6 C
187 15-02-2014 15:55:00 11.7 C 69 % 6.21 C
188 15-02-2014 16:00:00 11.6 C 69 % 6.11 C
189 15-02-2014 16:00:00 11.6 C 69 % 6.11 C
190 15-02-2014 16:05:00 11.6 C 69 % 6.11 C
191 15-02-2014 16:10:00 11.4 C 69 % 5.92 C
192 15-02-2014 16:15:00 11.4 C 69 % 5.92 C
193 15-02-2014 16:20:00 11.3 C 69 % 5.83 C
194 15-02-2014 16:25:00 11.3 C 70 % 6.03 C
195 15-02-2014 16:30:00 11.3 C 70 % 6.03 C
196 15-02-2014 16:35:00 11.2 C 70 % 5.94 C
197 15-02-2014 16:40:00 11.2 C 70 % 5.94 C
198 15-02-2014 16:45:00 11.1 C 70 % 5.84 C
199 15-02-2014 16:50:00 11.1 C 70 % 5.84 C
200 15-02-2014 16:55:00 11 C 70 % 5.75 C
Sensor: Nr:Datum:Temp:Feuchte:Taupunkt:
Aussen-T/F 201 15-02-2014 17:00:00 11 C 71 % 5.95 C
202 15-02-2014 17:05:00 10.9 C 71 % 5.86 C
203 15-02-2014 17:10:00 10.8 C 71 % 5.76 C
204 15-02-2014 17:15:00 10.8 C 71 % 5.76 C
205 15-02-2014 17:20:00 10.7 C 71 % 5.66 C
206 15-02-2014 17:25:00 10.7 C 72 % 5.87 C
207 15-02-2014 17:30:00 10.6 C 72 % 5.77 C
208 15-02-2014 17:35:00 10.5 C 72 % 5.67 C
209 15-02-2014 17:40:00 10.4 C 73 % 5.78 C
210 15-02-2014 17:45:00 10.3 C 73 % 5.68 C
211 15-02-2014 17:50:00 10.2 C 73 % 5.58 C
212 15-02-2014 17:55:00 10.2 C 74 % 5.78 C
213 15-02-2014 18:00:00 10.2 C 73 % 5.58 C
214 15-02-2014 18:05:00 10.1 C 74 % 5.68 C
215 15-02-2014 18:10:00 10.1 C 74 % 5.68 C
216 15-02-2014 18:15:00 10 C 74 % 5.59 C
217 15-02-2014 18:20:00 10.1 C 74 % 5.68 C
218 15-02-2014 18:25:00 10 C 74 % 5.59 C
219 15-02-2014 18:30:00 9.9 C 74 % 5.49 C
220 15-02-2014 18:35:00 9.9 C 75 % 5.68 C
221 15-02-2014 18:40:00 9.9 C 75 % 5.68 C
222 15-02-2014 18:45:00 9.8 C 75 % 5.59 C
223 15-02-2014 18:50:00 9.8 C 75 % 5.59 C
224 15-02-2014 18:55:00 9.8 C 75 % 5.59 C
225 15-02-2014 19:00:00 9.8 C 75 % 5.59 C
Sensor: Nr:Datum:Temp:Feuchte:Taupunkt:
Aussen-T/F 226 15-02-2014 19:05:00 9.8 C 75 % 5.59 C
227 15-02-2014 19:10:00 9.8 C 76 % 5.78 C
228 15-02-2014 19:15:00 9.8 C 78 % 6.15 C
229 15-02-2014 19:20:00 9.5 C 81 % 6.41 C
230 15-02-2014 19:25:00 9.3 C 84 % 6.74 C
231 15-02-2014 19:30:00 9 C 84 % 6.45 C
232 15-02-2014 19:35:00 8.8 C 85 % 6.42 C
233 15-02-2014 19:40:00 8.8 C 85 % 6.42 C
234 15-02-2014 19:45:00 8.7 C 87 % 6.66 C
235 15-02-2014 19:50:00 8.4 C 89 % 6.7 C
236 15-02-2014 19:55:00 8.3 C 90 % 6.76 C
237 15-02-2014 20:00:00 8.1 C 91 % 6.72 C
238 15-02-2014 20:05:00 7.9 C 92 % 6.68 C
239 15-02-2014 20:10:00 7.8 C 92 % 6.58 C
240 15-02-2014 20:15:00 7.7 C 93 % 6.64 C
241 15-02-2014 20:20:00 7.6 C 93 % 6.54 C
242 15-02-2014 20:25:00 7.4 C 93 % 6.34 C
243 15-02-2014 20:30:00 7.3 C 93 % 6.25 C
244 15-02-2014 20:35:00 7.3 C 93 % 6.25 C
245 15-02-2014 20:40:00 7.3 C 93 % 6.25 C
246 15-02-2014 20:45:00 7.2 C 93 % 6.15 C
247 15-02-2014 20:50:00 7.2 C 93 % 6.15 C
248 15-02-2014 20:55:00 7.2 C 93 % 6.15 C
249 15-02-2014 21:00:00 7.3 C 92 % 6.09 C
250 15-02-2014 21:05:00 7.3 C 92 % 6.09 C
Sensor: Nr:Datum:Temp:Feuchte:Taupunkt:
Aussen-T/F 251 15-02-2014 21:10:00 7.4 C 92 % 6.19 C
252 15-02-2014 21:15:00 7.6 C 91 % 6.23 C
253 15-02-2014 21:20:00 7.7 C 90 % 6.17 C
254 15-02-2014 21:25:00 7.8 C 88 % 5.94 C
255 15-02-2014 21:30:00 8 C 88 % 6.14 C
256 15-02-2014 21:35:00 8 C 88 % 6.14 C
257 15-02-2014 21:40:00 8.1 C 87 % 6.07 C
258 15-02-2014 21:45:00 8.1 C 86 % 5.9 C
259 15-02-2014 21:50:00 8.2 C 87 % 6.17 C
260 15-02-2014 21:55:00 8.3 C 85 % 5.93 C
261 15-02-2014 22:00:00 8.4 C 84 % 5.86 C
262 15-02-2014 22:05:00 8.5 C 84 % 5.96 C
263 15-02-2014 22:10:00 8.6 C 84 % 6.05 C
264 15-02-2014 22:15:00 8.5 C 83 % 5.78 C
265 15-02-2014 22:20:00 8.6 C 83 % 5.88 C
266 15-02-2014 22:25:00 8.7 C 81 % 5.63 C
267 15-02-2014 22:30:00 8.7 C 81 % 5.63 C
268 15-02-2014 22:35:00 8.7 C 82 % 5.8 C
269 15-02-2014 22:40:00 8.7 C 81 % 5.63 C
270 15-02-2014 22:45:00 8.7 C 81 % 5.63 C
271 15-02-2014 22:50:00 8.8 C 80 % 5.55 C
272 15-02-2014 22:55:00 8.8 C 80 % 5.55 C
273 15-02-2014 23:00:00 8.8 C 80 % 5.55 C
274 15-02-2014 23:05:00 8.7 C 80 % 5.45 C
275 15-02-2014 23:10:00 8.7 C 80 % 5.45 C
Sensor: Nr:Datum:Temp:Feuchte:Taupunkt:
Aussen-T/F 276 15-02-2014 23:15:00 8.7 C 80 % 5.45 C
277 15-02-2014 23:20:00 8.8 C 79 % 5.36 C
278 15-02-2014 23:25:00 8.8 C 79 % 5.36 C
279 15-02-2014 23:30:00 8.8 C 78 % 5.18 C
280 15-02-2014 23:35:00 8.9 C 78 % 5.28 C
281 15-02-2014 23:40:00 8.9 C 77 % 5.09 C
282 15-02-2014 23:45:00 8.9 C 77 % 5.09 C
283 15-02-2014 23:50:00 8.9 C 77 % 5.09 C
284 15-02-2014 23:55:00 8.8 C 78 % 5.18 C

Legende:
   Min
   Max


Maximal/Minimal-Werte vom 15.02.2014 - 15.02.2014

Sensor Min Max Avg
Temp
(Aussen-T/F)
5.6 °C
15-02-2014  01:00:00
12.4 °C
15-02-2014  14:30:00
9.71 °C
Feuchte
(Aussen-T/F)
65 %
15-02-2014  12:00:00
95 %
15-02-2014  01:05:00
79.34 %
Taupunkt
(Aussen-T/F)
4.71 C
15-02-2014  01:00:00
7.77 C
15-02-2014  06:35:00
6.15 C

Die Daten stammen von einer Davis Vantage Pro 2 Wetter-Station und werden unter Linux mit der Software wview2wettercgi und aufbereitet. Alle Angaben erfolgen ohne Gewähr für ihre Vollständigkeit oder Richtigkeit.
Kontakt: Rainer Krienke krienke@uni-koblenz.de . Meine Webseiten an der Uni Koblenz oder privat.
Version: $Revision: 0.78 $